createdAt,value
2022-10-11T00:01:40.076Z,7.53
2022-10-11T00:04:12.843Z,7.15
2022-10-11T00:06:48.381Z,9.02
2022-10-11T00:09:23.801Z,8.10
2022-10-11T00:11:57.589Z,10.55
2022-10-11T00:14:30.744Z,10.88
2022-10-11T00:17:08.341Z,8.65
2022-10-11T00:19:40.721Z,8.10
2022-10-11T00:22:14.568Z,7.30
2022-10-11T00:24:47.159Z,6.72
2022-10-11T00:27:20.257Z,7.22
2022-10-11T00:29:55.854Z,10.32
2022-10-11T00:32:29.201Z,10.77
2022-10-11T00:35:06.438Z,10.13
2022-10-11T00:37:40.857Z,6.68
2022-10-11T00:40:18.507Z,8.85
2022-10-11T00:42:52.045Z,8.07
2022-10-11T00:45:28.219Z,6.97
2022-10-11T00:48:34.201Z,8.55
2022-10-11T00:51:21.174Z,9.45
2022-10-11T00:54:05.618Z,10.00
2022-10-11T00:56:44.732Z,9.52
2022-10-11T00:59:29.589Z,8.95
2022-10-11T01:02:08.784Z,13.68
2022-10-11T01:04:44.593Z,7.82
2022-10-11T01:07:19.487Z,7.70
2022-10-11T01:09:54.198Z,8.27
2022-10-11T01:12:30.876Z,10.85
2022-10-11T01:15:07.075Z,8.48
2022-10-11T01:17:52.365Z,11.20
2022-10-11T01:20:51.102Z,13.40
2022-10-11T01:24:32.136Z,13.32
2022-10-11T01:28:04.728Z,10.95
2022-10-11T01:31:04.927Z,15.43
2022-10-11T01:34:18.653Z,10.50
2022-10-11T01:37:30.693Z,12.05
2022-10-11T01:40:35.849Z,11.95
2022-10-11T01:43:18.380Z,12.07
2022-10-11T01:45:57.923Z,17.98
2022-10-11T01:48:32.291Z,18.23
2022-10-11T01:51:04.943Z,14.48
2022-10-11T01:53:59.682Z,15.85
2022-10-11T01:57:35.369Z,13.98
2022-10-11T02:00:52.672Z,14.73
2022-10-11T02:03:49.411Z,14.15
2022-10-11T02:07:08.881Z,17.17
2022-10-11T02:10:05.244Z,16.55
2022-10-11T02:12:59.289Z,21.35
2022-10-11T02:15:44.963Z,15.90
2022-10-11T02:18:29.971Z,16.23
2022-10-11T02:21:11.964Z,17.88
2022-10-11T02:24:05.620Z,22.30
2022-10-11T02:26:44.680Z,18.20
2022-10-11T02:29:26.110Z,20.63
2022-10-11T02:36:13.955Z,19.58
2022-10-11T02:39:06.070Z,17.48
2022-10-11T02:41:51.787Z,17.65
2022-10-11T02:44:41.634Z,25.48
2022-10-11T02:47:22.478Z,20.13
2022-10-11T02:50:00.463Z,21.27
2022-10-11T02:52:33.111Z,21.67
2022-10-11T02:55:07.664Z,17.92
2022-10-11T02:57:45.631Z,20.85
2022-10-11T03:00:19.549Z,18.77
2022-10-11T03:02:56.152Z,23.55
2022-10-11T03:05:29.175Z,19.63
2022-10-11T03:08:02.700Z,22.90
2022-10-11T03:10:40.281Z,20.83
2022-10-11T03:13:18.063Z,25.27
2022-10-11T03:16:07.348Z,22.90
2022-10-11T03:18:42.260Z,21.85
2022-10-11T03:21:15.768Z,26.13
2022-10-11T03:23:51.321Z,25.90
2022-10-11T03:26:25.270Z,22.48
2022-10-11T03:29:00.473Z,29.27
2022-10-11T03:31:37.488Z,25.75
2022-10-11T03:34:11.284Z,24.50
2022-10-11T03:36:47.877Z,26.27
2022-10-11T03:39:24.433Z,26.65
2022-10-11T03:41:57.291Z,26.52
2022-10-11T03:44:30.109Z,24.83
2022-10-11T03:47:04.752Z,25.50
2022-10-11T03:49:43.617Z,20.87
2022-10-11T03:52:19.161Z,22.17
2022-10-11T03:54:52.883Z,28.35
2022-10-11T03:57:26.979Z,31.45
2022-10-11T04:00:04.183Z,23.63
2022-10-11T04:02:43.749Z,26.98
2022-10-11T04:05:19.460Z,28.77
2022-10-11T04:07:53.913Z,28.17
2022-10-11T04:10:31.557Z,28.33
2022-10-11T04:13:07.866Z,25.30
2022-10-11T04:15:42.355Z,28.02
2022-10-11T04:18:16.553Z,30.15
2022-10-11T04:20:53.964Z,31.55
2022-10-11T04:23:31.522Z,27.50
2022-10-11T04:26:09.005Z,31.00
2022-10-11T04:28:46.987Z,26.48
2022-10-11T04:31:20.804Z,24.65
2022-10-11T04:33:57.536Z,31.63
2022-10-11T04:36:47.615Z,23.63
2022-10-11T04:39:24.800Z,34.17
2022-10-11T04:41:59.064Z,24.00
2022-10-11T04:44:34.313Z,25.70
2022-10-11T04:47:08.244Z,26.98
2022-10-11T04:49:46.719Z,23.88
2022-10-11T04:52:25.688Z,26.52
2022-10-11T04:55:04.389Z,27.85
2022-10-11T04:57:41.870Z,23.23
2022-10-11T05:00:17.052Z,27.40
2022-10-11T05:02:51.202Z,27.90
2022-10-11T05:05:28.502Z,27.23
2022-10-11T05:08:02.352Z,26.15
2022-10-11T05:10:44.121Z,24.55
2022-10-11T05:13:37.686Z,29.95
2022-10-11T05:16:12.530Z,26.73
2022-10-11T05:18:46.855Z,23.55
2022-10-11T05:21:28.350Z,24.67
2022-10-11T05:24:01.658Z,26.77
2022-10-11T05:26:37.577Z,28.30
2022-10-11T05:29:11.207Z,28.17
2022-10-11T05:31:43.999Z,23.52
2022-10-11T05:34:19.358Z,24.55
2022-10-11T05:36:56.337Z,23.08
2022-10-11T05:39:29.600Z,19.48
2022-10-11T05:42:13.564Z,22.98
2022-10-11T05:44:49.205Z,25.10
2022-10-11T05:47:27.030Z,25.05
2022-10-11T05:50:04.126Z,27.23
2022-10-11T05:52:38.404Z,25.08
2022-10-11T05:55:13.552Z,21.48
2022-10-11T05:57:48.333Z,28.27
2022-10-11T06:00:25.900Z,24.95
2022-10-11T06:03:05.691Z,21.52
2022-10-11T06:05:40.873Z,21.90
2022-10-11T06:08:17.016Z,25.17
2022-10-11T06:10:50.591Z,24.83
2022-10-11T06:13:26.359Z,27.02
2022-10-11T06:16:02.421Z,22.70
2022-10-11T06:18:37.498Z,25.52
2022-10-11T06:21:11.410Z,23.75
2022-10-11T06:23:51.189Z,24.83
2022-10-11T06:26:27.853Z,25.08
2022-10-11T06:29:04.681Z,23.88
2022-10-11T06:31:40.562Z,23.48
2022-10-11T06:34:18.876Z,28.60
2022-10-11T06:36:52.366Z,26.05
2022-10-11T06:39:27.497Z,21.55
2022-10-11T06:42:02.299Z,22.33
2022-10-11T06:44:43.127Z,25.60
2022-10-11T06:47:18.692Z,20.10
2022-10-11T06:49:57.639Z,26.33
2022-10-11T06:52:29.735Z,23.33
2022-10-11T06:55:01.666Z,27.75
2022-10-11T06:57:35.575Z,25.10
2022-10-11T07:00:12.807Z,30.55
2022-10-11T07:02:50.364Z,23.52
2022-10-11T07:05:36.289Z,23.38
2022-10-11T07:08:16.630Z,22.98
2022-10-11T07:10:49.289Z,22.48
2022-10-11T07:13:24.753Z,23.98
2022-10-11T07:15:58.048Z,25.13
2022-10-11T07:18:34.813Z,24.73
2022-10-11T07:21:13.611Z,25.70
2022-10-11T07:23:51.449Z,22.15
2022-10-11T07:26:25.079Z,24.20
2022-10-11T07:29:04.422Z,23.38
2022-10-11T07:31:42.730Z,25.15
2022-10-11T07:34:18.474Z,21.33
2022-10-11T07:36:51.717Z,21.33
2022-10-11T07:39:26.525Z,22.67
2022-10-11T07:42:00.130Z,20.60
2022-10-11T07:44:35.277Z,19.10
2022-10-11T07:47:11.217Z,27.33
2022-10-11T07:49:46.106Z,23.60
2022-10-11T07:52:19.659Z,26.00
2022-10-11T07:54:57.541Z,29.58
2022-10-11T07:57:31.874Z,21.90
2022-10-11T08:00:09.353Z,21.20
2022-10-11T08:02:45.463Z,19.85
2022-10-11T08:05:21.805Z,23.55
2022-10-11T08:07:59.086Z,22.15
2022-10-11T08:10:37.399Z,21.98
2022-10-11T08:13:11.513Z,22.95
2022-10-11T08:15:45.667Z,25.35
2022-10-11T08:18:18.433Z,30.00
2022-10-11T08:20:53.611Z,24.33
2022-10-11T08:23:27.624Z,19.02
2022-10-11T08:26:02.117Z,24.05
2022-10-11T08:28:36.341Z,22.08
2022-10-11T08:31:13.995Z,20.67
2022-10-11T08:33:50.686Z,21.20
2022-10-11T08:36:25.749Z,21.05
2022-10-11T08:39:01.174Z,26.20
2022-10-11T08:41:39.445Z,26.67
2022-10-11T08:47:50.238Z,23.20
2022-10-11T08:50:38.450Z,24.42
2022-10-11T08:53:22.754Z,27.95
2022-10-11T08:56:15.944Z,19.60
2022-10-11T08:59:25.773Z,22.20
2022-10-11T09:03:06.217Z,22.85
2022-10-11T09:06:12.575Z,22.60
2022-10-11T09:09:51.368Z,21.30
2022-10-11T09:13:02.444Z,23.70
2022-10-11T09:16:07.214Z,22.15
2022-10-11T09:19:27.696Z,22.35
2022-10-11T09:22:46.128Z,23.98
2022-10-11T09:25:53.014Z,26.05
2022-10-11T09:28:45.976Z,20.40
2022-10-11T09:31:33.024Z,22.38
2022-10-11T09:34:15.592Z,21.77
2022-10-11T09:37:09.631Z,20.38
2022-10-11T09:40:25.039Z,21.65
2022-10-11T09:43:22.615Z,21.63
2022-10-11T09:45:56.212Z,22.70
2022-10-11T09:48:43.211Z,19.73
2022-10-11T09:51:24.062Z,18.58
2022-10-11T09:54:03.749Z,21.13
2022-10-11T09:56:49.296Z,21.00
2022-10-11T09:59:35.506Z,18.33
2022-10-11T10:02:18.162Z,20.33
2022-10-11T10:05:18.082Z,21.17
2022-10-11T10:08:23.570Z,19.83
2022-10-11T10:11:11.955Z,17.83
2022-10-11T10:13:57.229Z,17.88
2022-10-11T10:16:32.631Z,23.20
2022-10-11T10:19:20.583Z,21.02
2022-10-11T10:21:58.943Z,23.92
2022-10-11T10:24:49.149Z,18.38
2022-10-11T10:27:56.627Z,22.73
2022-10-11T10:30:36.290Z,21.48
2022-10-11T10:33:11.818Z,17.30
2022-10-11T10:36:15.732Z,16.52
2022-10-11T10:39:11.805Z,17.13
2022-10-11T10:42:12.377Z,16.70
2022-10-11T10:44:56.462Z,16.77
2022-10-11T10:48:03.270Z,15.65
2022-10-11T10:51:09.659Z,20.35
2022-10-11T10:54:36.649Z,21.40
2022-10-11T10:57:48.900Z,19.30
2022-10-11T11:00:50.584Z,14.95
2022-10-11T11:03:45.320Z,16.95
2022-10-11T11:06:45.460Z,17.92
2022-10-11T11:09:39.479Z,15.20
2022-10-11T11:13:05.508Z,15.82
2022-10-11T11:16:12.499Z,19.55
2022-10-11T11:19:22.406Z,16.67
2022-10-11T11:23:01.405Z,15.65
2022-10-11T11:26:17.237Z,15.35
2022-10-11T11:29:35.216Z,18.08
2022-10-11T11:32:35.711Z,14.85
2022-10-11T11:35:35.198Z,15.63
2022-10-11T11:38:29.262Z,15.68
2022-10-11T11:41:24.756Z,14.95
2022-10-11T11:44:27.614Z,14.63
2022-10-11T11:47:16.558Z,15.07
2022-10-11T11:50:04.600Z,16.10
2022-10-11T11:53:11.946Z,14.23
2022-10-11T11:56:34.841Z,15.77
2022-10-11T11:59:41.088Z,15.68
2022-10-11T12:03:04.028Z,14.20
2022-10-11T12:06:26.580Z,15.90
2022-10-11T12:09:19.807Z,15.50
2022-10-11T12:12:02.547Z,13.82
2022-10-11T12:14:43.563Z,13.70
2022-10-11T12:17:17.032Z,14.02
2022-10-11T12:20:10.303Z,12.48
2022-10-11T12:23:30.346Z,12.25
2022-10-11T12:26:33.665Z,12.60
2022-10-11T12:29:27.599Z,17.65
2022-10-11T12:32:52.607Z,12.52
2022-10-11T12:35:44.869Z,13.90
2022-10-11T12:38:41.649Z,13.52
2022-10-11T12:41:18.766Z,15.27
2022-10-11T12:44:30.505Z,12.82
2022-10-11T12:47:33.984Z,13.48
2022-10-11T12:50:43.046Z,12.13
2022-10-11T12:54:14.673Z,12.95
2022-10-11T12:57:29.610Z,14.07
2022-10-11T13:00:37.168Z,15.82
2022-10-11T13:03:41.096Z,13.85
2022-10-11T13:06:31.906Z,13.07
2022-10-11T13:09:19.510Z,13.88
2022-10-11T13:12:16.246Z,14.60
2022-10-11T13:15:06.332Z,13.18
2022-10-11T13:17:48.284Z,13.32
2022-10-11T13:20:37.670Z,13.90
2022-10-11T13:23:25.549Z,14.60
2022-10-11T13:26:03.285Z,14.02
2022-10-11T13:28:38.612Z,12.35
2022-10-11T13:31:21.889Z,13.95
2022-10-11T13:33:59.460Z,18.58
2022-10-11T13:36:33.659Z,17.02
2022-10-11T13:39:07.287Z,14.50
2022-10-11T13:41:55.862Z,11.45
2022-10-11T13:44:29.026Z,13.85
2022-10-11T13:47:03.831Z,15.07
2022-10-11T13:49:41.134Z,14.20
2022-10-11T13:52:18.525Z,17.00
2022-10-11T13:55:04.164Z,10.68
2022-10-11T13:57:49.119Z,12.15
2022-10-11T14:00:28.216Z,12.82
2022-10-11T14:03:17.118Z,11.38
2022-10-11T14:05:59.692Z,13.60
2022-10-11T14:08:37.877Z,11.90
2022-10-11T14:11:33.210Z,16.67
2022-10-11T14:14:33.917Z,14.85
2022-10-11T14:17:16.995Z,13.18
2022-10-11T14:20:29.556Z,14.77
2022-10-11T14:23:11.494Z,12.82
2022-10-11T14:25:48.812Z,12.73
2022-10-11T14:28:23.087Z,11.50
2022-10-11T14:30:55.299Z,12.27
2022-10-11T14:33:27.582Z,12.50
2022-10-11T14:35:59.887Z,14.63
2022-10-11T14:38:32.212Z,12.38
2022-10-11T14:41:04.542Z,16.60
2022-10-11T14:43:37.306Z,11.82
2022-10-11T14:46:24.267Z,11.90
2022-10-11T14:48:57.497Z,14.40
2022-10-11T14:51:34.441Z,12.70
2022-10-11T14:54:07.128Z,12.05
2022-10-11T14:56:40.161Z,13.00
2022-10-11T14:59:15.775Z,12.52
2022-10-11T15:01:54.263Z,11.65
2022-10-11T15:04:27.179Z,12.48
2022-10-11T15:06:59.683Z,13.25
2022-10-11T15:09:32.148Z,12.57
2022-10-11T15:12:04.490Z,13.75
2022-10-11T15:14:36.755Z,12.77
2022-10-11T15:17:12.275Z,13.82
2022-10-11T15:19:44.750Z,13.25
2022-10-11T15:22:16.870Z,14.13
2022-10-11T15:24:51.615Z,12.50
2022-10-11T15:27:25.852Z,20.73
2022-10-11T15:29:59.950Z,12.05
2022-10-11T15:32:32.451Z,14.20
2022-10-11T15:35:04.648Z,14.07
2022-10-11T15:37:37.613Z,12.48
2022-10-11T15:40:23.378Z,12.65
2022-10-11T15:43:01.934Z,12.18
2022-10-11T15:45:35.781Z,13.65
2022-10-11T15:48:11.700Z,12.35
2022-10-11T15:50:47.758Z,12.98
2022-10-11T15:53:28.540Z,14.93
2022-10-11T15:56:05.514Z,17.05
2022-10-11T15:58:41.087Z,13.93
2022-10-11T16:01:20.674Z,12.55
2022-10-11T16:03:54.335Z,12.93
2022-10-11T16:06:31.597Z,11.77
2022-10-11T16:09:10.384Z,14.65
2022-10-11T16:11:48.953Z,16.45
2022-10-11T16:14:23.159Z,15.55
2022-10-11T16:17:03.618Z,14.70
2022-10-11T16:19:36.486Z,13.40
2022-10-11T16:22:09.327Z,11.90
2022-10-11T16:24:41.656Z,13.77
2022-10-11T16:27:18.600Z,12.68
2022-10-11T16:29:51.325Z,12.35
2022-10-11T16:32:24.392Z,14.60
2022-10-11T16:34:56.976Z,16.40
2022-10-11T16:37:30.587Z,12.07
2022-10-11T16:40:05.206Z,14.65
2022-10-11T16:42:40.263Z,12.23
2022-10-11T16:45:17.894Z,11.85
2022-10-11T16:47:56.705Z,14.60
2022-10-11T16:50:39.130Z,12.75
2022-10-11T16:53:15.649Z,15.07
2022-10-11T16:55:52.456Z,18.33
2022-10-11T16:58:31.615Z,12.50
2022-10-11T17:01:10.552Z,18.45
2022-10-11T17:03:42.959Z,15.05
2022-10-11T17:06:15.866Z,13.60
2022-10-11T17:08:49.358Z,14.40
2022-10-11T17:11:22.606Z,20.50
2022-10-11T17:13:55.356Z,17.33
2022-10-11T17:16:28.690Z,13.10
2022-10-11T17:19:04.553Z,17.77
2022-10-11T17:21:42.649Z,13.65
2022-10-11T17:24:15.591Z,15.60
2022-10-11T17:26:50.006Z,13.13
2022-10-11T17:29:24.165Z,12.90
2022-10-11T17:31:56.308Z,18.98
2022-10-11T17:34:28.761Z,19.70
2022-10-11T17:37:01.049Z,15.93
2022-10-11T17:39:34.059Z,13.90
2022-10-11T17:42:07.604Z,16.48
2022-10-11T17:44:40.333Z,17.38
2022-10-11T17:47:13.629Z,16.08
2022-10-11T17:49:46.504Z,14.80
2022-10-11T17:52:19.114Z,14.25
2022-10-11T17:54:51.179Z,19.95
2022-10-11T17:57:23.731Z,15.85
2022-10-11T17:59:56.263Z,18.40
2022-10-11T18:02:28.588Z,14.82
2022-10-11T18:05:01.186Z,13.85
2022-10-11T18:07:35.799Z,15.88
2022-10-11T18:10:08.560Z,15.10
2022-10-11T18:12:41.556Z,16.42
2022-10-11T18:15:14.849Z,15.30
2022-10-11T18:17:47.946Z,15.35
2022-10-11T18:20:20.289Z,17.20
2022-10-11T18:22:54.258Z,15.13
2022-10-11T18:25:26.664Z,18.98
2022-10-11T18:27:59.250Z,14.73
2022-10-11T18:30:32.149Z,14.05
2022-10-11T18:33:04.876Z,15.45
2022-10-11T18:35:38.720Z,17.45
2022-10-11T18:38:11.434Z,14.60
2022-10-11T18:40:47.205Z,18.33
2022-10-11T18:43:19.981Z,17.60
2022-10-11T18:46:02.197Z,15.93
2022-10-11T18:48:43.631Z,17.83
2022-10-11T18:51:30.667Z,21.33
2022-10-11T18:54:08.949Z,17.05
2022-10-11T18:56:42.954Z,15.05
2022-10-11T18:59:16.180Z,20.65
2022-10-11T19:01:52.225Z,17.33
2022-10-11T19:04:25.440Z,19.33
2022-10-11T19:06:58.671Z,19.73
2022-10-11T19:09:31.690Z,24.42
2022-10-11T19:12:04.267Z,18.55
2022-10-11T19:14:36.625Z,17.17
2022-10-11T19:17:09.851Z,15.38
2022-10-11T19:19:43.604Z,15.80
2022-10-11T19:22:17.559Z,15.93
2022-10-11T19:24:49.803Z,16.13
2022-10-11T19:27:22.063Z,20.00
2022-10-11T19:29:54.247Z,16.27
2022-10-11T19:32:26.564Z,17.80
2022-10-11T19:34:59.222Z,18.88
2022-10-11T19:37:33.425Z,18.48
2022-10-11T19:40:09.142Z,16.23
2022-10-11T19:42:41.878Z,17.70
2022-10-11T19:45:15.498Z,15.77
2022-10-11T19:47:54.453Z,14.60
2022-10-11T19:50:27.463Z,23.13
2022-10-11T19:53:00.825Z,30.95
2022-10-11T19:55:35.721Z,18.60
2022-10-11T19:58:08.835Z,16.85
2022-10-11T20:00:41.779Z,17.40
2022-10-11T20:03:16.944Z,15.80
2022-10-11T20:05:50.444Z,16.70
2022-10-11T20:08:23.402Z,14.68
2022-10-11T20:10:56.081Z,16.50
2022-10-11T20:13:34.688Z,16.83
2022-10-11T20:16:09.353Z,16.50
2022-10-11T20:18:45.626Z,15.23
2022-10-11T20:21:21.657Z,16.70
2022-10-11T20:23:59.001Z,18.80
2022-10-11T20:26:34.542Z,17.50
2022-10-11T20:29:07.666Z,14.93
2022-10-11T20:31:41.816Z,17.17
2022-10-11T20:34:14.080Z,17.80
2022-10-11T20:36:49.125Z,15.70
2022-10-11T20:39:21.833Z,16.88
2022-10-11T20:41:54.909Z,15.40
2022-10-11T20:44:26.972Z,17.13
2022-10-11T20:47:03.824Z,19.58
2022-10-11T20:49:37.336Z,16.92
2022-10-11T20:52:09.446Z,16.00
2022-10-11T20:54:41.695Z,18.05
2022-10-11T20:57:14.608Z,14.85
2022-10-11T20:59:48.174Z,16.63
2022-10-11T21:02:20.347Z,16.45
2022-10-11T21:04:52.418Z,16.13
2022-10-11T21:07:25.074Z,17.10
2022-10-11T21:09:57.165Z,16.50
2022-10-11T21:12:29.310Z,15.50
2022-10-11T21:15:01.449Z,19.73
2022-10-11T21:17:33.668Z,19.00
2022-10-11T21:20:06.371Z,17.58
2022-10-11T21:22:39.084Z,16.83
2022-10-11T21:25:11.184Z,18.23
2022-10-11T21:27:43.297Z,19.77
2022-10-11T21:30:15.453Z,20.38
2022-10-11T21:32:47.841Z,16.73
2022-10-11T21:35:22.028Z,16.08
2022-10-11T21:37:55.931Z,18.15
2022-10-11T21:40:29.297Z,17.70
2022-10-11T21:43:01.463Z,21.52
2022-10-11T21:45:37.352Z,17.55
2022-10-11T21:48:09.628Z,19.75
2022-10-11T21:50:42.070Z,16.25
2022-10-11T21:53:14.279Z,15.18
2022-10-11T21:55:47.232Z,16.60
2022-10-11T21:58:19.220Z,16.75
2022-10-11T22:00:51.232Z,15.02
2022-10-11T22:03:25.660Z,16.27
2022-10-11T22:05:57.909Z,13.80
2022-10-11T22:08:32.943Z,16.38
2022-10-11T22:11:05.671Z,16.15
2022-10-11T22:13:38.774Z,16.45
2022-10-11T22:16:13.639Z,16.70
2022-10-11T22:18:46.221Z,23.00
2022-10-11T22:21:21.421Z,19.17
2022-10-11T22:23:54.668Z,16.00
2022-10-11T22:26:30.761Z,17.27
2022-10-11T22:29:05.574Z,18.08
2022-10-11T22:31:37.660Z,15.88
2022-10-11T22:34:09.898Z,15.80
2022-10-11T22:36:42.200Z,24.90
2022-10-11T22:39:14.413Z,15.88
2022-10-11T22:41:46.543Z,15.75
2022-10-11T22:44:18.531Z,15.38
2022-10-11T22:46:50.562Z,19.02
2022-10-11T22:49:22.665Z,15.35
2022-10-11T22:51:54.943Z,17.95
2022-10-11T22:54:26.957Z,27.05
2022-10-11T22:56:59.055Z,17.48
2022-10-11T22:59:31.560Z,17.13
2022-10-11T23:02:03.599Z,19.33
2022-10-11T23:04:35.572Z,18.48
2022-10-11T23:07:07.619Z,16.63
2022-10-11T23:09:39.575Z,23.65
2022-10-11T23:12:11.544Z,19.38
2022-10-11T23:14:44.271Z,17.35
2022-10-11T23:17:16.322Z,16.58
2022-10-11T23:19:48.427Z,18.55
2022-10-11T23:22:20.386Z,17.25
2022-10-11T23:24:52.459Z,16.65
2022-10-11T23:27:24.484Z,17.45
2022-10-11T23:29:57.060Z,18.52
2022-10-11T23:32:29.130Z,16.67
2022-10-11T23:35:01.315Z,16.52
2022-10-11T23:37:33.407Z,16.02
2022-10-11T23:40:06.715Z,18.05
2022-10-11T23:42:39.145Z,21.67
2022-10-11T23:45:11.448Z,19.17
2022-10-11T23:47:43.382Z,15.77
2022-10-11T23:50:15.408Z,16.58
2022-10-11T23:52:47.487Z,17.33
2022-10-11T23:55:19.438Z,15.93
2022-10-11T23:57:52.144Z,17.05
